Pinson, AL (35126)

5:21 PM CST on February 08, 2016 (GMT -0600)
APRSWXNET | | Change Station
CLOSE
Current Station
Personal Weather Station
Location: Palmerdale, AL
Elevation: 695 ft
Nearby Weather Stations

Elev 695 ft 33.74 °N, 86.64 °W | Updated 27 minutes ago

Overcast
Overcast
45 °F
Feels Like 45 °F
N
1
Wind Variable Wind from NW
Gusts 12.0 mph

Today
High -- | Low -- °F
--% Chance of Precip.
Yesterday
High -- | Low -- °F
Precip. -- in
Pressure 29.89 in
Visibility 10.0 miles
Clouds Few 6500 ft
Overcast 8000 ft
Windchill 45 °F
Dew Point 26 °F
Humidity 47%
Rainfall in
Snow Depth Not available.
6:37 AM 5:23 PM
New Moon, 0% visible
METAR KBHM 082253Z 30016G23KT 10SM FEW065 OVC080 08/M05 A2989 RMK AO2 PK WND 28026/2227 SLP120 T00781050
Pressure 29.89 in
Visibility 10.0 miles
Clouds Few 6500 ft
Overcast 8000 ft
Windchill 45 °F
Dew Point 26 °F
Humidity 47%
Rainfall in
Snow Depth Not available.
6:37 AM 5:23 PM
New Moon, 0% visible
METAR KBHM 082253Z 30016G23KT 10SM FEW065 OVC080 08/M05 A2989 RMK AO2 PK WND 28026/2227 SLP120 T00781050

10-Day Weather Forecast

Almanac

Astronomy

Feb. 08, 2016 Rise Set
Actual Time
Civil Twilight
Nautical Twilight
Astronomical Twilight
Moon
Length of Visible Light
Length of Day
Tomorrow will be .
, % of the Moon is Illuminated

Today's Extremes

State Highs State Lows

Community

WunderPhotos

Upload Photos

1,891,525 photos uploaded!

WunderBlog® & News

Nearby

Air Quality

  Air Quality AQ Index Pollutant
Not available.

Snow Depth

Station Depth Elevation

Earthquake Activity

City Distance Mag. Time & Date
Minimum magnitude displayed is 2.5.

Coastal Water Temperatures

Place Temperature

Stations

Nearby Weather Stations

Station Location Temp. Windchill Dew Point Humidity Wind Precip. Elev Updated Type
                   

Watches & Warnings

There are currently no watches in effect.